sensor_id;sensor_type;location;lat;lon;timestamp;temperature;humidity
32524;DHT22;18965;52.242;20.886;2022-12-07T00:03:31;4.40;80.50
32524;DHT22;18965;52.242;20.886;2022-12-07T00:05:58;4.50;80.60
32524;DHT22;18965;52.242;20.886;2022-12-07T00:08:24;4.50;81.30
32524;DHT22;18965;52.242;20.886;2022-12-07T00:10:50;4.50;80.50
32524;DHT22;18965;52.242;20.886;2022-12-07T00:13:16;4.50;80.40
32524;DHT22;18965;52.242;20.886;2022-12-07T00:15:41;3.50;79.90
32524;DHT22;18965;52.242;20.886;2022-12-07T00:18:07;4.50;80.40
32524;DHT22;18965;52.242;20.886;2022-12-07T00:20:33;4.50;80.40
32524;DHT22;18965;52.242;20.886;2022-12-07T00:22:59;4.50;80.50
32524;DHT22;18965;52.242;20.886;2022-12-07T00:25:25;4.50;80.50
32524;DHT22;18965;52.242;20.886;2022-12-07T00:27:54;4.50;80.50
32524;DHT22;18965;52.242;20.886;2022-12-07T00:30:22;4.50;80.40
32524;DHT22;18965;52.242;20.886;2022-12-07T00:32:48;4.50;80.40
32524;DHT22;18965;52.242;20.886;2022-12-07T00:35:14;4.50;80.40
32524;DHT22;18965;52.242;20.886;2022-12-07T00:37:40;4.50;80.30
32524;DHT22;18965;52.242;20.886;2022-12-07T00:40:06;4.50;80.30
32524;DHT22;18965;52.242;20.886;2022-12-07T00:42:32;4.50;80.30
32524;DHT22;18965;52.242;20.886;2022-12-07T00:44:58;4.50;80.40
32524;DHT22;18965;52.242;20.886;2022-12-07T00:47:24;4.50;80.40
32524;DHT22;18965;52.242;20.886;2022-12-07T00:49:49;4.50;80.40
32524;DHT22;18965;52.242;20.886;2022-12-07T00:52:15;4.50;80.30
32524;DHT22;18965;52.242;20.886;2022-12-07T00:54:41;4.50;80.30
32524;DHT22;18965;52.242;20.886;2022-12-07T00:57:07;4.50;80.40
32524;DHT22;18965;52.242;20.886;2022-12-07T00:59:32;4.50;80.40
32524;DHT22;18965;52.242;20.886;2022-12-07T01:01:58;4.50;80.50
32524;DHT22;18965;52.242;20.886;2022-12-07T01:04:24;4.60;80.70
32524;DHT22;18965;52.242;20.886;2022-12-07T01:06:50;4.60;80.70
32524;DHT22;18965;52.242;20.886;2022-12-07T01:09:16;4.60;80.70
32524;DHT22;18965;52.242;20.886;2022-12-07T01:11:41;4.60;80.70
32524;DHT22;18965;52.242;20.886;2022-12-07T01:14:08;4.70;80.70
32524;DHT22;18965;52.242;20.886;2022-12-07T01:16:34;4.70;80.70
32524;DHT22;18965;52.242;20.886;2022-12-07T01:19:01;4.70;80.60
32524;DHT22;18965;52.242;20.886;2022-12-07T01:21:29;4.80;80.60
32524;DHT22;18965;52.242;20.886;2022-12-07T01:23:57;4.80;80.70
32524;DHT22;18965;52.242;20.886;2022-12-07T01:26:24;4.70;80.50
32524;DHT22;18965;52.242;20.886;2022-12-07T01:28:50;4.80;80.60
32524;DHT22;18965;52.242;20.886;2022-12-07T01:31:21;4.80;80.60
32524;DHT22;18965;52.242;20.886;2022-12-07T01:33:51;4.80;80.70
32524;DHT22;18965;52.242;20.886;2022-12-07T01:36:20;4.80;80.70
32524;DHT22;18965;52.242;20.886;2022-12-07T01:38:47;4.80;80.90
32524;DHT22;18965;52.242;20.886;2022-12-07T01:41:14;4.80;80.90
32524;DHT22;18965;52.242;20.886;2022-12-07T01:46:48;4.90;81.10
32524;DHT22;18965;52.242;20.886;2022-12-07T01:52:28;5.00;81.00
32524;DHT22;18965;52.242;20.886;2022-12-07T01:55:01;5.00;80.90
32524;DHT22;18965;52.242;20.886;2022-12-07T01:57:29;5.00;80.90
32524;DHT22;18965;52.242;20.886;2022-12-07T01:59:56;5.00;80.90
32524;DHT22;18965;52.242;20.886;2022-12-07T02:02:29;5.00;80.80
32524;DHT22;18965;52.242;20.886;2022-12-07T02:04:59;5.00;80.80
32524;DHT22;18965;52.242;20.886;2022-12-07T02:07:26;5.00;80.90
32524;DHT22;18965;52.242;20.886;2022-12-07T02:09:53;5.00;81.00
32524;DHT22;18965;52.242;20.886;2022-12-07T02:12:19;5.10;80.90
32524;DHT22;18965;52.242;20.886;2022-12-07T02:14:45;5.00;80.90
32524;DHT22;18965;52.242;20.886;2022-12-07T02:17:25;5.00;81.00
32524;DHT22;18965;52.242;20.886;2022-12-07T02:30:34;5.20;81.00
32524;DHT22;18965;52.242;20.886;2022-12-07T02:33:14;5.20;80.90
32524;DHT22;18965;52.242;20.886;2022-12-07T02:36:08;5.20;80.90
32524;DHT22;18965;52.242;20.886;2022-12-07T02:41:30;5.20;80.70
32524;DHT22;18965;52.242;20.886;2022-12-07T02:44:08;5.20;80.70
32524;DHT22;18965;52.242;20.886;2022-12-07T02:46:44;5.20;80.80
32524;DHT22;18965;52.242;20.886;2022-12-07T02:49:12;5.20;80.70
32524;DHT22;18965;52.242;20.886;2022-12-07T02:51:40;5.10;80.70
32524;DHT22;18965;52.242;20.886;2022-12-07T02:54:18;5.20;80.80
32524;DHT22;18965;52.242;20.886;2022-12-07T03:07:11;5.10;80.70
32524;DHT22;18965;52.242;20.886;2022-12-07T03:15:42;5.20;81.00
32524;DHT22;18965;52.242;20.886;2022-12-07T03:18:12;5.10;80.90
32524;DHT22;18965;52.242;20.886;2022-12-07T03:20:39;5.10;80.70
32524;DHT22;18965;52.242;20.886;2022-12-07T03:23:09;5.10;80.70
32524;DHT22;18965;52.242;20.886;2022-12-07T03:25:42;5.10;80.80
32524;DHT22;18965;52.242;20.886;2022-12-07T03:28:10;5.10;80.80
32524;DHT22;18965;52.242;20.886;2022-12-07T03:30:44;5.10;80.90
32524;DHT22;18965;52.242;20.886;2022-12-07T03:33:17;5.10;80.90
32524;DHT22;18965;52.242;20.886;2022-12-07T03:35:49;5.10;80.80
32524;DHT22;18965;52.242;20.886;2022-12-07T03:38:31;5.10;80.70
32524;DHT22;18965;52.242;20.886;2022-12-07T03:41:00;5.10;80.70
32524;DHT22;18965;52.242;20.886;2022-12-07T03:43:28;5.10;80.70
32524;DHT22;18965;52.242;20.886;2022-12-07T03:52:02;5.10;80.70
32524;DHT22;18965;52.242;20.886;2022-12-07T03:54:51;5.10;80.70
32524;DHT22;18965;52.242;20.886;2022-12-07T03:57:21;5.00;80.60
32524;DHT22;18965;52.242;20.886;2022-12-07T03:59:48;5.00;80.50
32524;DHT22;18965;52.242;20.886;2022-12-07T04:02:14;5.00;80.50
32524;DHT22;18965;52.242;20.886;2022-12-07T04:04:41;5.00;80.50
32524;DHT22;18965;52.242;20.886;2022-12-07T04:07:07;4.90;80.60
32524;DHT22;18965;52.242;20.886;2022-12-07T04:09:33;5.00;80.60
32524;DHT22;18965;52.242;20.886;2022-12-07T04:11:59;4.90;80.60
32524;DHT22;18965;52.242;20.886;2022-12-07T04:14:24;4.90;80.60
32524;DHT22;18965;52.242;20.886;2022-12-07T04:16:52;4.90;80.40
32524;DHT22;18965;52.242;20.886;2022-12-07T04:19:20;4.90;80.50
32524;DHT22;18965;52.242;20.886;2022-12-07T04:21:47;4.90;80.50
32524;DHT22;18965;52.242;20.886;2022-12-07T04:24:14;4.20;80.10
32524;DHT22;18965;52.242;20.886;2022-12-07T04:26:41;4.80;80.50
32524;DHT22;18965;52.242;20.886;2022-12-07T04:29:07;4.80;80.50
32524;DHT22;18965;52.242;20.886;2022-12-07T04:31:33;4.80;80.50
32524;DHT22;18965;52.242;20.886;2022-12-07T04:33:59;4.80;80.60
32524;DHT22;18965;52.242;20.886;2022-12-07T04:36:25;4.80;80.70
32524;DHT22;18965;52.242;20.886;2022-12-07T04:38:53;4.80;80.60
32524;DHT22;18965;52.242;20.886;2022-12-07T04:41:19;4.70;80.70
32524;DHT22;18965;52.242;20.886;2022-12-07T04:43:44;4.70;80.70
32524;DHT22;18965;52.242;20.886;2022-12-07T04:46:10;4.70;80.60
32524;DHT22;18965;52.242;20.886;2022-12-07T04:48:36;4.70;80.70
32524;DHT22;18965;52.242;20.886;2022-12-07T04:51:03;4.60;80.60
32524;DHT22;18965;52.242;20.886;2022-12-07T04:53:29;4.60;80.60
32524;DHT22;18965;52.242;20.886;2022-12-07T04:55:54;4.60;80.60
32524;DHT22;18965;52.242;20.886;2022-12-07T04:58:20;4.60;80.70
32524;DHT22;18965;52.242;20.886;2022-12-07T05:00:46;4.40;80.70
32524;DHT22;18965;52.242;20.886;2022-12-07T05:03:12;4.60;80.70
32524;DHT22;18965;52.242;20.886;2022-12-07T05:05:40;4.60;80.70
32524;DHT22;18965;52.242;20.886;2022-12-07T05:08:07;4.60;80.70
32524;DHT22;18965;52.242;20.886;2022-12-07T05:10:32;4.60;80.80
32524;DHT22;18965;52.242;20.886;2022-12-07T05:12:58;4.50;80.70
32524;DHT22;18965;52.242;20.886;2022-12-07T05:15:24;4.50;80.70
32524;DHT22;18965;52.242;20.886;2022-12-07T05:17:50;4.50;80.80
32524;DHT22;18965;52.242;20.886;2022-12-07T05:20:17;4.50;80.70
32524;DHT22;18965;52.242;20.886;2022-12-07T05:22:43;4.50;80.70
32524;DHT22;18965;52.242;20.886;2022-12-07T05:25:09;4.50;81.10
32524;DHT22;18965;52.242;20.886;2022-12-07T05:27:35;4.50;80.70
32524;DHT22;18965;52.242;20.886;2022-12-07T05:30:00;4.50;80.80
32524;DHT22;18965;52.242;20.886;2022-12-07T05:32:26;4.50;80.80
32524;DHT22;18965;52.242;20.886;2022-12-07T05:34:52;4.50;80.80
32524;DHT22;18965;52.242;20.886;2022-12-07T05:37:20;4.50;80.80
32524;DHT22;18965;52.242;20.886;2022-12-07T05:39:45;4.50;80.90
32524;DHT22;18965;52.242;20.886;2022-12-07T05:42:11;4.50;80.80
32524;DHT22;18965;52.242;20.886;2022-12-07T05:44:38;4.50;80.70
32524;DHT22;18965;52.242;20.886;2022-12-07T05:47:04;4.40;80.80
32524;DHT22;18965;52.242;20.886;2022-12-07T05:49:29;4.40;80.80
32524;DHT22;18965;52.242;20.886;2022-12-07T05:51:55;4.40;80.70
32524;DHT22;18965;52.242;20.886;2022-12-07T05:54:21;4.40;80.70
32524;DHT22;18965;52.242;20.886;2022-12-07T05:56:47;4.40;80.80
32524;DHT22;18965;52.242;20.886;2022-12-07T05:59:13;4.40;80.70
32524;DHT22;18965;52.242;20.886;2022-12-07T06:01:59;4.40;80.80
32524;DHT22;18965;52.242;20.886;2022-12-07T06:04:27;4.30;80.80
32524;DHT22;18965;52.242;20.886;2022-12-07T06:06:53;4.30;80.80
32524;DHT22;18965;52.242;20.886;2022-12-07T06:09:21;4.30;80.80
32524;DHT22;18965;52.242;20.886;2022-12-07T06:11:47;4.30;80.80
32524;DHT22;18965;52.242;20.886;2022-12-07T06:14:31;4.30;80.80
32524;DHT22;18965;52.242;20.886;2022-12-07T06:16:58;4.30;80.80
32524;DHT22;18965;52.242;20.886;2022-12-07T06:19:24;4.30;80.80
32524;DHT22;18965;52.242;20.886;2022-12-07T06:21:50;4.30;80.80
32524;DHT22;18965;52.242;20.886;2022-12-07T06:24:17;4.20;80.70
32524;DHT22;18965;52.242;20.886;2022-12-07T06:26:43;4.20;80.80
32524;DHT22;18965;52.242;20.886;2022-12-07T06:29:10;4.20;80.90
32524;DHT22;18965;52.242;20.886;2022-12-07T06:31:36;4.20;80.90
32524;DHT22;18965;52.242;20.886;2022-12-07T06:34:05;4.20;80.90
32524;DHT22;18965;52.242;20.886;2022-12-07T06:36:31;4.20;80.90
32524;DHT22;18965;52.242;20.886;2022-12-07T06:38:57;4.20;81.10
32524;DHT22;18965;52.242;20.886;2022-12-07T06:41:23;4.20;81.00
32524;DHT22;18965;52.242;20.886;2022-12-07T06:43:49;4.20;80.90
32524;DHT22;18965;52.242;20.886;2022-12-07T06:46:16;4.20;81.00
32524;DHT22;18965;52.242;20.886;2022-12-07T06:48:43;4.20;81.00
32524;DHT22;18965;52.242;20.886;2022-12-07T06:51:09;4.20;80.90
32524;DHT22;18965;52.242;20.886;2022-12-07T06:53:36;4.20;80.90
32524;DHT22;18965;52.242;20.886;2022-12-07T06:56:03;4.20;81.00
32524;DHT22;18965;52.242;20.886;2022-12-07T06:58:29;4.30;81.00
32524;DHT22;18965;52.242;20.886;2022-12-07T07:00:55;4.20;80.80
32524;DHT22;18965;52.242;20.886;2022-12-07T07:03:21;4.20;80.80
32524;DHT22;18965;52.242;20.886;2022-12-07T07:05:47;4.20;80.80
32524;DHT22;18965;52.242;20.886;2022-12-07T07:08:13;4.20;80.90
32524;DHT22;18965;52.242;20.886;2022-12-07T07:10:39;4.20;80.60
32524;DHT22;18965;52.242;20.886;2022-12-07T07:13:05;4.20;80.70
32524;DHT22;18965;52.242;20.886;2022-12-07T07:15:32;4.20;80.60
32524;DHT22;18965;52.242;20.886;2022-12-07T07:17:58;4.20;80.60
32524;DHT22;18965;52.242;20.886;2022-12-07T07:20:24;4.20;80.60
32524;DHT22;18965;52.242;20.886;2022-12-07T07:22:50;3.70;80.40
32524;DHT22;18965;52.242;20.886;2022-12-07T07:25:16;4.20;80.80
32524;DHT22;18965;52.242;20.886;2022-12-07T07:27:42;4.20;80.80
32524;DHT22;18965;52.242;20.886;2022-12-07T07:30:08;4.20;80.70
32524;DHT22;18965;52.242;20.886;2022-12-07T07:32:34;4.20;80.70
32524;DHT22;18965;52.242;20.886;2022-12-07T07:35:00;4.20;80.70
32524;DHT22;18965;52.242;20.886;2022-12-07T07:37:26;4.20;80.90
32524;DHT22;18965;52.242;20.886;2022-12-07T07:39:52;4.20;80.90
32524;DHT22;18965;52.242;20.886;2022-12-07T07:42:18;4.20;80.80
32524;DHT22;18965;52.242;20.886;2022-12-07T07:44:43;4.20;80.80
32524;DHT22;18965;52.242;20.886;2022-12-07T07:47:09;4.20;80.80
32524;DHT22;18965;52.242;20.886;2022-12-07T07:49:35;4.20;80.90
32524;DHT22;18965;52.242;20.886;2022-12-07T07:52:01;4.20;80.90
32524;DHT22;18965;52.242;20.886;2022-12-07T07:56:53;4.20;80.30
32524;DHT22;18965;52.242;20.886;2022-12-07T07:59:18;4.20;81.00
32524;DHT22;18965;52.242;20.886;2022-12-07T08:01:44;4.20;80.90
32524;DHT22;18965;52.242;20.886;2022-12-07T08:04:10;4.20;81.00
32524;DHT22;18965;52.242;20.886;2022-12-07T08:06:36;4.20;80.90
32524;DHT22;18965;52.242;20.886;2022-12-07T08:09:02;4.20;80.90
32524;DHT22;18965;52.242;20.886;2022-12-07T08:11:28;4.20;80.90
32524;DHT22;18965;52.242;20.886;2022-12-07T08:13:54;4.20;80.90
32524;DHT22;18965;52.242;20.886;2022-12-07T08:16:19;4.30;81.20
32524;DHT22;18965;52.242;20.886;2022-12-07T08:18:45;4.30;81.10
32524;DHT22;18965;52.242;20.886;2022-12-07T08:21:13;4.30;81.00
32524;DHT22;18965;52.242;20.886;2022-12-07T08:23:40;4.30;81.00
32524;DHT22;18965;52.242;20.886;2022-12-07T08:26:09;4.30;81.00
32524;DHT22;18965;52.242;20.886;2022-12-07T08:28:35;4.30;81.00
32524;DHT22;18965;52.242;20.886;2022-12-07T08:31:04;4.40;81.10
32524;DHT22;18965;52.242;20.886;2022-12-07T08:33:32;4.40;81.00
32524;DHT22;18965;52.242;20.886;2022-12-07T08:36:07;4.40;81.10
32524;DHT22;18965;52.242;20.886;2022-12-07T08:38:35;4.40;81.10
32524;DHT22;18965;52.242;20.886;2022-12-07T08:41:01;4.40;81.10
32524;DHT22;18965;52.242;20.886;2022-12-07T08:43:27;4.40;81.20
32524;DHT22;18965;52.242;20.886;2022-12-07T08:46:10;4.40;81.30
32524;DHT22;18965;52.242;20.886;2022-12-07T08:48:41;4.40;81.50
32524;DHT22;18965;52.242;20.886;2022-12-07T08:51:09;4.50;81.50
32524;DHT22;18965;52.242;20.886;2022-12-07T08:53:37;4.50;81.50
32524;DHT22;18965;52.242;20.886;2022-12-07T08:56:05;4.50;81.60
32524;DHT22;18965;52.242;20.886;2022-12-07T08:58:32;4.70;81.90
32524;DHT22;18965;52.242;20.886;2022-12-07T09:00:58;4.70;81.80
32524;DHT22;18965;52.242;20.886;2022-12-07T09:03:24;4.80;81.80
32524;DHT22;18965;52.242;20.886;2022-12-07T09:05:50;4.90;81.80
32524;DHT22;18965;52.242;20.886;2022-12-07T09:08:16;5.00;81.80
32524;DHT22;18965;52.242;20.886;2022-12-07T09:10:42;5.10;81.80
32524;DHT22;18965;52.242;20.886;2022-12-07T09:13:08;5.10;81.60
32524;DHT22;18965;52.242;20.886;2022-12-07T09:15:33;5.20;81.50
32524;DHT22;18965;52.242;20.886;2022-12-07T09:17:59;5.20;81.30
32524;DHT22;18965;52.242;20.886;2022-12-07T09:20:26;5.30;81.20
32524;DHT22;18965;52.242;20.886;2022-12-07T09:22:52;5.30;81.30
32524;DHT22;18965;52.242;20.886;2022-12-07T09:25:17;5.40;81.10
32524;DHT22;18965;52.242;20.886;2022-12-07T09:27:43;5.40;81.00
32524;DHT22;18965;52.242;20.886;2022-12-07T09:30:09;5.50;80.90
32524;DHT22;18965;52.242;20.886;2022-12-07T09:32:35;5.50;80.90
32524;DHT22;18965;52.242;20.886;2022-12-07T09:35:01;5.60;80.80
32524;DHT22;18965;52.242;20.886;2022-12-07T09:37:26;5.60;80.60
32524;DHT22;18965;52.242;20.886;2022-12-07T09:39:52;5.60;80.50
32524;DHT22;18965;52.242;20.886;2022-12-07T09:42:28;5.70;80.50
32524;DHT22;18965;52.242;20.886;2022-12-07T09:44:55;5.70;80.40
32524;DHT22;18965;52.242;20.886;2022-12-07T09:47:22;5.70;80.20
32524;DHT22;18965;52.242;20.886;2022-12-07T09:49:47;5.70;80.10
32524;DHT22;18965;52.242;20.886;2022-12-07T09:52:18;5.70;80.10
32524;DHT22;18965;52.242;20.886;2022-12-07T09:54:48;5.80;80.10
32524;DHT22;18965;52.242;20.886;2022-12-07T09:57:15;5.80;79.90
32524;DHT22;18965;52.242;20.886;2022-12-07T09:59:41;5.90;79.80
32524;DHT22;18965;52.242;20.886;2022-12-07T10:02:41;5.90;79.60
32524;DHT22;18965;52.242;20.886;2022-12-07T10:05:13;5.90;79.40
32524;DHT22;18965;52.242;20.886;2022-12-07T10:07:39;5.90;79.30
32524;DHT22;18965;52.242;20.886;2022-12-07T10:10:20;5.90;79.20
32524;DHT22;18965;52.242;20.886;2022-12-07T10:12:59;5.90;79.20
32524;DHT22;18965;52.242;20.886;2022-12-07T10:18:31;5.90;78.90
32524;DHT22;18965;52.242;20.886;2022-12-07T10:21:18;5.90;78.90
32524;DHT22;18965;52.242;20.886;2022-12-07T10:31:41;5.90;78.70
32524;DHT22;18965;52.242;20.886;2022-12-07T10:34:27;5.90;78.60
32524;DHT22;18965;52.242;20.886;2022-12-07T10:37:12;5.90;78.60
32524;DHT22;18965;52.242;20.886;2022-12-07T10:39:44;5.90;78.60
32524;DHT22;18965;52.242;20.886;2022-12-07T10:42:28;5.90;78.50
32524;DHT22;18965;52.242;20.886;2022-12-07T10:45:17;5.80;78.50
32524;DHT22;18965;52.242;20.886;2022-12-07T11:09:09;6.00;78.70
32524;DHT22;18965;52.242;20.886;2022-12-07T11:15:04;6.00;78.70
32524;DHT22;18965;52.242;20.886;2022-12-07T11:23:46;6.00;78.50
32524;DHT22;18965;52.242;20.886;2022-12-07T11:32:04;6.00;78.40
32524;DHT22;18965;52.242;20.886;2022-12-07T11:37:12;6.00;78.50
32524;DHT22;18965;52.242;20.886;2022-12-07T11:39:54;6.00;78.80
32524;DHT22;18965;52.242;20.886;2022-12-07T11:42:42;6.00;78.70
32524;DHT22;18965;52.242;20.886;2022-12-07T11:45:22;6.10;78.80
32524;DHT22;18965;52.242;20.886;2022-12-07T11:50:38;6.20;78.70
32524;DHT22;18965;52.242;20.886;2022-12-07T12:06:37;6.40;78.20
32524;DHT22;18965;52.242;20.886;2022-12-07T12:18:26;6.20;78.10
32524;DHT22;18965;52.242;20.886;2022-12-07T12:20:26;6.10;78.00
32524;DHT22;18965;52.242;20.886;2022-12-07T12:22:55;6.10;78.20
32524;DHT22;18965;52.242;20.886;2022-12-07T12:25:36;6.10;78.40
32524;DHT22;18965;52.242;20.886;2022-12-07T12:28:03;6.00;78.30
32524;DHT22;18965;52.242;20.886;2022-12-07T12:30:37;5.90;78.60
32524;DHT22;18965;52.242;20.886;2022-12-07T12:33:26;5.90;78.80
32524;DHT22;18965;52.242;20.886;2022-12-07T12:39:22;5.90;79.10
32524;DHT22;18965;52.242;20.886;2022-12-07T12:41:58;5.90;79.20
32524;DHT22;18965;52.242;20.886;2022-12-07T12:50:29;5.90;79.30
32524;DHT22;18965;52.242;20.886;2022-12-07T12:53:16;5.80;79.20
32524;DHT22;18965;52.242;20.886;2022-12-07T12:55:50;5.80;79.30
32524;DHT22;18965;52.242;20.886;2022-12-07T13:00:46;5.70;79.30
32524;DHT22;18965;52.242;20.886;2022-12-07T13:03:30;5.70;79.20
32524;DHT22;18965;52.242;20.886;2022-12-07T13:06:35;5.70;79.10
32524;DHT22;18965;52.242;20.886;2022-12-07T13:09:01;5.70;79.10
32524;DHT22;18965;52.242;20.886;2022-12-07T13:11:42;5.60;79.10
32524;DHT22;18965;52.242;20.886;2022-12-07T13:20:07;5.60;78.80
32524;DHT22;18965;52.242;20.886;2022-12-07T13:25:29;5.50;78.80
32524;DHT22;18965;52.242;20.886;2022-12-07T13:28:16;5.40;78.80
32524;DHT22;18965;52.242;20.886;2022-12-07T13:31:09;5.40;78.80
32524;DHT22;18965;52.242;20.886;2022-12-07T13:33:37;5.40;78.90
32524;DHT22;18965;52.242;20.886;2022-12-07T13:36:03;5.40;79.10
32524;DHT22;18965;52.242;20.886;2022-12-07T13:38:34;5.40;79.20
32524;DHT22;18965;52.242;20.886;2022-12-07T13:41:16;5.30;79.10
32524;DHT22;18965;52.242;20.886;2022-12-07T13:49:26;5.30;79.60
32524;DHT22;18965;52.242;20.886;2022-12-07T13:51:53;5.30;79.60
32524;DHT22;18965;52.242;20.886;2022-12-07T13:54:20;5.30;79.60
32524;DHT22;18965;52.242;20.886;2022-12-07T13:56:53;5.20;79.70
32524;DHT22;18965;52.242;20.886;2022-12-07T13:59:24;5.20;79.60
32524;DHT22;18965;52.242;20.886;2022-12-07T14:01:52;5.20;79.70
32524;DHT22;18965;52.242;20.886;2022-12-07T14:04:36;5.20;79.70
32524;DHT22;18965;52.242;20.886;2022-12-07T14:10:00;5.10;79.70
32524;DHT22;18965;52.242;20.886;2022-12-07T14:12:27;5.10;79.60
32524;DHT22;18965;52.242;20.886;2022-12-07T14:14:54;5.00;79.50
32524;DHT22;18965;52.242;20.886;2022-12-07T14:17:23;5.00;79.70
32524;DHT22;18965;52.242;20.886;2022-12-07T14:20:02;5.00;79.80
32524;DHT22;18965;52.242;20.886;2022-12-07T14:22:35;4.90;79.80
32524;DHT22;18965;52.242;20.886;2022-12-07T14:27:46;4.90;79.90
32524;DHT22;18965;52.242;20.886;2022-12-07T14:30:16;4.90;80.60
32524;DHT22;18965;52.242;20.886;2022-12-07T14:32:43;4.90;79.80
32524;DHT22;18965;52.242;20.886;2022-12-07T14:35:15;4.80;79.90
32524;DHT22;18965;52.242;20.886;2022-12-07T14:37:43;4.80;80.00
32524;DHT22;18965;52.242;20.886;2022-12-07T14:40:13;4.80;80.00
32524;DHT22;18965;52.242;20.886;2022-12-07T14:42:40;4.80;80.00
32524;DHT22;18965;52.242;20.886;2022-12-07T14:45:17;4.80;80.00
32524;DHT22;18965;52.242;20.886;2022-12-07T14:47:44;4.70;79.90
32524;DHT22;18965;52.242;20.886;2022-12-07T14:50:13;4.70;79.90
32524;DHT22;18965;52.242;20.886;2022-12-07T14:52:39;4.70;80.00
32524;DHT22;18965;52.242;20.886;2022-12-07T14:55:13;4.60;80.00
32524;DHT22;18965;52.242;20.886;2022-12-07T14:57:40;4.60;80.10
32524;DHT22;18965;52.242;20.886;2022-12-07T15:00:06;4.60;80.10
32524;DHT22;18965;52.242;20.886;2022-12-07T15:02:32;4.60;80.10
32524;DHT22;18965;52.242;20.886;2022-12-07T15:04:57;4.50;80.00
32524;DHT22;18965;52.242;20.886;2022-12-07T15:07:23;4.50;80.00
32524;DHT22;18965;52.242;20.886;2022-12-07T15:09:49;4.50;80.00
32524;DHT22;18965;52.242;20.886;2022-12-07T15:12:15;4.50;80.00
32524;DHT22;18965;52.242;20.886;2022-12-07T15:14:40;4.40;80.20
32524;DHT22;18965;52.242;20.886;2022-12-07T15:17:07;4.40;80.20
32524;DHT22;18965;52.242;20.886;2022-12-07T15:19:35;4.40;80.30
32524;DHT22;18965;52.242;20.886;2022-12-07T15:22:00;4.40;80.40
32524;DHT22;18965;52.242;20.886;2022-12-07T15:24:26;4.40;80.60
32524;DHT22;18965;52.242;20.886;2022-12-07T15:26:52;4.40;80.70
32524;DHT22;18965;52.242;20.886;2022-12-07T15:29:18;4.40;80.70
32524;DHT22;18965;52.242;20.886;2022-12-07T15:31:44;4.40;80.60
32524;DHT22;18965;52.242;20.886;2022-12-07T15:34:10;4.40;80.70
32524;DHT22;18965;52.242;20.886;2022-12-07T15:36:36;4.50;80.80
32524;DHT22;18965;52.242;20.886;2022-12-07T15:39:02;4.50;80.70
32524;DHT22;18965;52.242;20.886;2022-12-07T15:41:28;4.40;80.70
32524;DHT22;18965;52.242;20.886;2022-12-07T15:43:54;4.40;80.70
32524;DHT22;18965;52.242;20.886;2022-12-07T15:46:40;4.40;80.70
32524;DHT22;18965;52.242;20.886;2022-12-07T15:49:10;4.40;80.70
32524;DHT22;18965;52.242;20.886;2022-12-07T15:51:36;4.40;80.70
32524;DHT22;18965;52.242;20.886;2022-12-07T15:54:02;4.30;81.10
32524;DHT22;18965;52.242;20.886;2022-12-07T15:56:28;4.30;80.80
32524;DHT22;18965;52.242;20.886;2022-12-07T15:58:53;4.30;80.80
32524;DHT22;18965;52.242;20.886;2022-12-07T16:01:21;4.30;80.90
32524;DHT22;18965;52.242;20.886;2022-12-07T16:03:47;4.30;81.00
32524;DHT22;18965;52.242;20.886;2022-12-07T16:06:16;4.30;81.00
32524;DHT22;18965;52.242;20.886;2022-12-07T16:08:43;4.30;81.10
32524;DHT22;18965;52.242;20.886;2022-12-07T16:11:09;4.30;81.20
32524;DHT22;18965;52.242;20.886;2022-12-07T16:13:35;4.30;81.20
32524;DHT22;18965;52.242;20.886;2022-12-07T16:16:09;4.40;81.10
32524;DHT22;18965;52.242;20.886;2022-12-07T16:18:35;4.40;81.20
32524;DHT22;18965;52.242;20.886;2022-12-07T16:21:01;4.40;81.20
32524;DHT22;18965;52.242;20.886;2022-12-07T16:23:27;4.40;81.30
32524;DHT22;18965;52.242;20.886;2022-12-07T16:25:53;4.40;81.40
32524;DHT22;18965;52.242;20.886;2022-12-07T16:28:19;4.40;81.40
32524;DHT22;18965;52.242;20.886;2022-12-07T16:30:45;4.40;81.40
32524;DHT22;18965;52.242;20.886;2022-12-07T16:33:11;4.40;81.40
32524;DHT22;18965;52.242;20.886;2022-12-07T16:35:40;4.40;81.40
32524;DHT22;18965;52.242;20.886;2022-12-07T16:38:07;4.40;81.50
32524;DHT22;18965;52.242;20.886;2022-12-07T16:40:32;4.40;81.40
32524;DHT22;18965;52.242;20.886;2022-12-07T16:42:58;4.40;81.50
32524;DHT22;18965;52.242;20.886;2022-12-07T16:45:24;4.50;81.60
32524;DHT22;18965;52.242;20.886;2022-12-07T16:47:51;4.50;81.60
32524;DHT22;18965;52.242;20.886;2022-12-07T16:50:17;4.50;81.60
32524;DHT22;18965;52.242;20.886;2022-12-07T16:52:42;4.50;81.40
32524;DHT22;18965;52.242;20.886;2022-12-07T16:55:08;4.40;81.40
32524;DHT22;18965;52.242;20.886;2022-12-07T16:57:34;4.50;81.40
32524;DHT22;18965;52.242;20.886;2022-12-07T17:00:00;4.50;81.50
32524;DHT22;18965;52.242;20.886;2022-12-07T17:02:25;4.50;81.50
32524;DHT22;18965;52.242;20.886;2022-12-07T17:04:51;4.50;81.50
32524;DHT22;18965;52.242;20.886;2022-12-07T17:07:17;4.50;81.60
32524;DHT22;18965;52.242;20.886;2022-12-07T17:09:43;4.50;81.50
32524;DHT22;18965;52.242;20.886;2022-12-07T17:12:09;4.50;81.60
32524;DHT22;18965;52.242;20.886;2022-12-07T17:14:35;4.50;81.50
32524;DHT22;18965;52.242;20.886;2022-12-07T17:17:19;4.60;81.50
32524;DHT22;18965;52.242;20.886;2022-12-07T17:19:45;4.60;81.50
32524;DHT22;18965;52.242;20.886;2022-12-07T17:22:10;4.60;81.40
32524;DHT22;18965;52.242;20.886;2022-12-07T17:24:38;4.60;81.50
32524;DHT22;18965;52.242;20.886;2022-12-07T17:27:04;4.60;81.40
32524;DHT22;18965;52.242;20.886;2022-12-07T17:29:30;4.60;81.30
32524;DHT22;18965;52.242;20.886;2022-12-07T17:31:56;4.60;81.30
32524;DHT22;18965;52.242;20.886;2022-12-07T17:34:21;4.60;81.30
32524;DHT22;18965;52.242;20.886;2022-12-07T17:36:47;4.60;81.40
32524;DHT22;18965;52.242;20.886;2022-12-07T17:39:16;4.60;81.30
32524;DHT22;18965;52.242;20.886;2022-12-07T17:41:42;4.60;81.30
32524;DHT22;18965;52.242;20.886;2022-12-07T17:44:27;4.60;81.30
32524;DHT22;18965;52.242;20.886;2022-12-07T17:46:53;4.60;81.30
32524;DHT22;18965;52.242;20.886;2022-12-07T17:49:22;4.60;81.20
32524;DHT22;18965;52.242;20.886;2022-12-07T17:51:49;4.60;81.10
32524;DHT22;18965;52.242;20.886;2022-12-07T17:54:33;4.50;81.00
32524;DHT22;18965;52.242;20.886;2022-12-07T17:56:59;4.50;81.10
32524;DHT22;18965;52.242;20.886;2022-12-07T17:59:25;4.50;81.20
32524;DHT22;18965;52.242;20.886;2022-12-07T18:01:51;4.50;81.20
32524;DHT22;18965;52.242;20.886;2022-12-07T18:04:16;4.50;81.30
32524;DHT22;18965;52.242;20.886;2022-12-07T18:06:42;4.50;81.40
32524;DHT22;18965;52.242;20.886;2022-12-07T18:09:09;4.60;81.40
32524;DHT22;18965;52.242;20.886;2022-12-07T18:11:35;4.50;81.50
32524;DHT22;18965;52.242;20.886;2022-12-07T18:16:30;4.50;81.50